Weather observations for the past three days for
San Antonio, Stinson Municipal Airport
Metric (Imperial)
Date Time (cdt) Wind (kph) Vis. (km) Weather Sky Cond. Temperature (ºC) Relative Humidity Wind Chill (°C) Heat Index (°C) Pressure Precipitation (cm)
Air Dwpt 6 hour altimeter (cm) sea level (mb) 1 hr 3 hr 6 hr
Max. Min.
10 08:53 S 7 14.48 Overcast OVC005 22.8 21.1 90% 75.92 1011.0
10 07:53 Calm 16.09 Overcast OVC007 21.1 18.9 87% 75.87 1010.3
10 06:53 Calm 16.09 Fair CLR 19.4 18.3 23.9 18.9 93% 75.82 1009.7
10 05:53 Calm 16.09 Fair CLR 20.6 17.8 84% 75.84 1009.9
10 04:53 SE 6 16.09 Fair CLR 20.6 18.3 87% 75.82 1009.8
10 03:53 E 7 16.09 Fair CLR 21.7 18.9 84% 75.79 1009.4
10 02:53 Calm 16.09 Fair CLR 21.7 18.9 84% 75.79 1009.3
10 01:53 Calm 16.09 Fair CLR 23.3 18.9 76% 75.79 1009.2
10 00:53 S 7 16.09 Fair CLR 23.9 18.9 31.1 23.9 74% 25 75.79 1009.3
09 23:53 SE 9 16.09 Fair CLR 25 19.4 71% 26 75.74 1008.8
09 22:53 SE 15 16.09 Fair CLR 26.1 19.4 67% 27 75.72 1008.4
09 21:53 SE 7 16.09 Fair CLR 27.2 19.4 62% 29 75.69 1007.9
09 20:53 SE 7 16.09 Fair CLR 27.8 19.4 60% 29 75.62 1007.2
09 19:53 E 11 16.09 Fair CLR 30 19.4 53% 32 75.57 1006.3
09 18:53 S 17 16.09 Fair CLR 31.7 19.4 32.8 28.9 48% 33 75.51 1005.5
09 17:53 SE 9 16.09 Fair CLR 32.2 18.3 44% 33 75.54 1005.8
09 16:53 Vrbl 6 16.09 Fair CLR 32.8 17.8 41% 34 75.54 1005.8
09 15:53 S 11 16.09 A Few Clouds FEW055 32.2 17.8 42% 33 75.59 1006.4
09 14:53 Calm 16.09 A Few Clouds FEW050 31.7 18.3 45% 33 75.67 1007.4
09 13:53 Calm 16.09 A Few Clouds FEW045 30.6 19.4 51% 32 75.72 1008.2
09 12:53 Calm 16.09 A Few Clouds FEW032 28.9 21.1 29.4 22.8 63% 31 75.77 1008.9
09 11:53 SW 17 16.09 Fair CLR 28.3 20.6 63% 30 75.77 1009.1
09 10:53 W 17 16.09 Fair CLR 26.7 20 67% 28 75.79 1009.4
09 09:53 Calm 16.09 Light Rain FEW010 BKN060 OVC080 22.8 21.7 94% 75.84 1010.3
09 08:53 SE 11 6.44 Thunderstorm in Vicinity Light Rain Fog/Mist OVC006 23.3 22.2 94% 75.84 1010.3
09 07:53 NE 11 4.83 Fog/Mist BKN004 OVC011 23.3 22.2 94% 75.79 1009.7
09 06:53 N 7 6.44 Fog/Mist BKN005 OVC011 23.3 22.2 23.3 22.8 94% 75.77 1009.0
09 05:53 NE 7 6.44 Fog/Mist BKN004 OVC010 23.3 22.2 94% 75.72 1008.5
09 04:53 E 6 8.05 Fog/Mist BKN005 OVC010 23.3 22.2 94% 75.69 1008.2
09 03:53 NE 11 8.05 Fog/Mist OVC005 23.3 22.2 94% 75.64 1007.5
09 02:53 SE 13 8.05 Fog/Mist OVC006 23.3 21.7 91% 75.69 1008.1
09 01:53 SE 9 9.66 Fog/Mist OVC006 23.3 21.7 91% 75.74 1008.8
09 00:53 E 7 12.87 Overcast OVC008 23.3 21.7 25.6 23.3 91% 75.74 1008.9
08 23:53 SE 7 16.09 Overcast OVC010 23.3 21.7 91% 75.79 1009.4
08 22:53 E 11 16.09 Overcast OVC010 23.3 21.1 88% 75.69 1008.5
08 21:53 E 7 16.09 Mostly Cloudy BKN014 BKN047 23.9 21.1 84% 24 75.67 1008.1
08 20:53 E 9 16.09 Overcast BKN017 BKN034 OVC050 24.4 21.1 82% 25 75.62 1007.2
08 19:53 E 13 16.09 Mostly Cloudy FEW017 BKN048 24.4 20.6 79% 25 75.59 1007.0
08 18:53 E 13 16.09 Partly Cloudy SCT020 SCT055 25.6 21.1 26.1 21.7 76% 27 75.57 1006.8
08 17:53 NE 7 16.09 Overcast OVC022 25.6 20.6 74% 27 75.59 1006.9
08 16:53 E 9 16.09 Overcast OVC022 25 20 74% 26 75.62 1007.4
08 15:53 SE 9 16.09 Overcast OVC014 25 20 74% 26 75.69 1008.2
08 14:53 Vrbl 11 16.09 Overcast OVC014 24.4 18.9 72% 25 75.72 1008.7
08 13:53 Vrbl 9 16.09 Overcast OVC014 22.8 17.8 74% 75.77 1009.4
08 12:53 Vrbl 7 16.09 Overcast OVC013 21.7 16.7 21.7 17.8 73% 75.84 1010.5
08 11:53 Calm 16.09 Overcast OVC014 20.6 16.1 76% 75.9 1011.2
08 10:53 NE 7 16.09 Overcast OVC014 19.4 15.6 79% 75.92 1011.5
08 09:53 NE 11 16.09 Light Rain OVC013 18.9 15 78% 75.97 1012.3
08 08:53 E 7 16.09 Overcast OVC013 18.3 14.4 78% 75.97 1012.2
08 07:53 NE 11 16.09 Overcast OVC015 17.8 13.9 78% 75.97 1012.2
08 06:53 N 9 16.09 Overcast OVC015 17.8 14.4 18.9 17.8 81% 76 1012.6
08 05:53 NE 9 16.09 Light Rain OVC015 18.3 12.8 70% 75.97 1012.2
08 04:53 E 11 16.09 Light Rain OVC019 18.3 12.2 68% 75.95 1011.7
08 03:53 NE 9 16.09 Overcast OVC021 18.9 12.2 65% 75.97 1012.3
08 02:53 N 7 16.09 Overcast OVC021 18.3 12.2 68% 76 1012.7
08 01:53 N 7 16.09 Light Rain OVC021 18.9 12.2 65% 76.07 1013.7
08 00:53 NE 11 16.09 Overcast OVC024 18.9 12.2 21.1 18.9 65% 76.02 1012.8
07 23:53 NW 13 16.09 Mostly Cloudy BKN026 19.4 11.7 61% 76.15 1014.8
07 22:53 NE 13 16.09 Mostly Cloudy FEW029 BKN044 19.4 11.7 61% 76.02 1013.0
07 21:53 N 13 16.09 Overcast OVC031 20 12.2 61% 76.07 1013.6
07 20:53 NE 9 16.09 Partly Cloudy SCT033 20 12.2 61% 76.02 1013.1
07 19:53 E 17 G 31 16.09 Fair CLR 20 11.7 59% 75.9 1011.4
07 18:53 NE 17 16.09 Fair CLR 21.1 12.2 21.7 18.9 57% 76.02 1012.8
07 17:53 NE 17 16.09 Mostly Cloudy BKN070 21.7 12.8 57% 76.02 1013.0
07 16:53 NE 19 G 33 16.09 Overcast OVC029 21.1 12.8 59% 76.1 1013.8
07 15:53 NE 15 16.09 Overcast BKN029 OVC037 21.1 14.4 66% 76.1 1013.8
07 14:53 NE 22 G 33 16.09 A Few Clouds FEW028 20 14.4 70% 76.1 1014.1
07 13:53 NE 19 G 30 4.02 A Few Clouds with Haze FEW100 19.4 13.9 71% 76.15 1014.7
07 12:53 NE 20 G 33 16.09 Overcast FEW028 BKN035 OVC043 18.9 13.3 19.4 16.7 70% 76.25 1015.9
07 11:53 NE 20 G 35 16.09 Overcast FEW020 OVC026 18.3 13.3 73% 76.28 1016.3
07 10:53 NE 22 G 39 16.09 Overcast OVC018 17.8 13.3 75% 76.23 1015.8
07 09:53 NE 22 G 39 16.09 Overcast OVC017 17.2 13.3 78% 76.2 1015.4
Date Time (cdt) Wind (kph) Vis. (km) Weather Sky Cond. Air Dwpt Max. Min. Relative Humidity Wind Chill (°C) Heat Index (°C) altimeter (cm) sea level (mb) 1 hr 3 hr 6 hr
6 hour
Temperature (ºC) Pressure Precipitation (cm)